Time;durP1;ratioP1;P1;durP2;ratioP2;P2;SDS_P1;SDS_P2;PMS_P1;PMS_P2;Temp;Humidity;BMP_temperature;BMP_pressure;BME280_temperature;BME280_humidity;BME280_pressure;Samples;Min_cycle;Max_cycle;Signal;HPM_P1;HPM_P2
2022/05/02 00:00:32;;;;;;;0.00;0.00;;;;;;;;;;5031730;28;20041;-62
2022/05/02 00:02:57;;;;;;;0.00;0.00;;;;;;;;;;5032829;28;20033;-62
2022/05/02 00:05:23;;;;;;;0.10;0.10;;;;;;;;;;5031752;28;20059;-62
2022/05/02 00:07:48;;;;;;;0.17;0.17;;;;;;;;;;5032321;28;20021;-63
2022/05/02 00:10:14;;;;;;;0.00;0.00;;;;;;;;;;5032713;28;20025;-60
2022/05/02 00:12:39;;;;;;;0.00;0.00;;;;;;;;;;5029093;28;20405;-61
2022/05/02 00:15:05;;;;;;;0.15;0.15;;;;;;;;;;5030452;28;20533;-61
2022/05/02 00:20:14;;;;;;;0.22;0.22;;;;;;;;;;5026399;28;20036;-60
2022/05/02 00:22:42;;;;;;;0.10;0.10;;;;;;;;;;5029265;28;20117;-60
2022/05/02 00:25:08;;;;;;;0.00;0.00;;;;;;;;;;5030187;28;20025;-61
2022/05/02 00:27:33;;;;;;;0.38;0.38;;;;;;;;;;5030170;28;20512;-60
2022/05/02 00:29:59;;;;;;;0.38;0.38;;;;;;;;;;5029361;28;20117;-60
2022/05/02 00:32:24;;;;;;;0.10;0.10;;;;;;;;;;5029818;28;20076;-61
2022/05/02 00:34:50;;;;;;;0.43;0.43;;;;;;;;;;5029334;28;20030;-60
2022/05/02 00:37:17;;;;;;;1.20;0.98;;;;;;;;;;5029810;28;20100;-60
2022/05/02 00:39:42;;;;;;;0.00;0.00;;;;;;;;;;5031145;28;20034;-59
2022/05/02 00:42:07;;;;;;;2.25;2.13;;;;;;;;;;5030023;28;20029;-60
2022/05/02 00:44:33;;;;;;;0.00;0.00;;;;;;;;;;5029796;28;20390;-61
2022/05/02 00:46:58;;;;;;;0.00;0.00;;;;;;;;;;5029908;28;20137;-61
2022/05/02 00:49:23;;;;;;;1.17;0.60;;;;;;;;;;5013381;28;20064;-60
2022/05/02 00:51:48;;;;;;;0.00;0.00;;;;;;;;;;5030412;28;20084;-61
2022/05/02 00:54:13;;;;;;;0.00;0.00;;;;;;;;;;5030984;28;21016;-61
2022/05/02 00:56:39;;;;;;;0.00;0.00;;;;;;;;;;5029607;28;20264;-62
2022/05/02 00:59:05;;;;;;;0.88;0.88;;;;;;;;;;5031180;28;20029;-61
2022/05/02 01:01:30;;;;;;;1.08;1.08;;;;;;;;;;5030783;28;20469;-59
2022/05/02 01:03:56;;;;;;;0.00;0.00;;;;;;;;;;5012684;28;20021;-60
2022/05/02 01:09:05;;;;;;;0.00;0.00;;;;;;;;;;5030076;28;20032;-60
2022/05/02 01:11:30;;;;;;;0.00;0.00;;;;;;;;;;5034030;28;20026;-60
2022/05/02 01:13:56;;;;;;;1.35;0.90;;;;;;;;;;5034013;28;20470;-61
2022/05/02 01:16:23;;;;;;;0.00;0.00;;;;;;;;;;5033854;28;20465;-60
2022/05/02 01:18:49;;;;;;;0.00;0.00;;;;;;;;;;5034335;28;20063;-62
2022/05/02 01:21:36;;;;;;;0.10;0.10;;;;;;;;;;5034512;28;20064;-63
2022/05/02 01:24:02;;;;;;;0.00;0.00;;;;;;;;;;5025006;28;20068;-60
2022/05/02 01:26:30;;;;;;;0.85;0.85;;;;;;;;;;5034133;28;20021;-62
2022/05/02 01:28:57;;;;;;;1.73;1.65;;;;;;;;;;5034658;28;20025;-61
2022/05/02 01:31:22;;;;;;;0.00;0.00;;;;;;;;;;5034319;28;20112;-61
2022/05/02 01:33:48;;;;;;;0.00;0.00;;;;;;;;;;5033963;28;20105;-61
2022/05/02 01:36:14;;;;;;;0.90;0.47;;;;;;;;;;5034147;28;20033;-61
2022/05/02 01:38:40;;;;;;;0.00;0.00;;;;;;;;;;5033791;28;20408;-61
2022/05/02 01:41:06;;;;;;;0.00;0.00;;;;;;;;;;5034023;28;20018;-60
2022/05/02 01:43:34;;;;;;;0.30;0.30;;;;;;;;;;5033216;28;20017;-60
2022/05/02 01:45:59;;;;;;;0.00;0.00;;;;;;;;;;5031484;28;20037;-59
2022/05/02 01:48:25;;;;;;;0.00;0.00;;;;;;;;;;5032187;28;20848;-60
2022/05/02 01:50:50;;;;;;;0.00;0.00;;;;;;;;;;5031829;28;20025;-60
2022/05/02 01:53:15;;;;;;;0.00;0.00;;;;;;;;;;5032075;28;20044;-60
2022/05/02 01:55:41;;;;;;;0.00;0.00;;;;;;;;;;5032190;28;20383;-58
2022/05/02 01:58:06;;;;;;;0.00;0.00;;;;;;;;;;5032674;28;20382;-59
2022/05/02 02:00:32;;;;;;;0.00;0.00;;;;;;;;;;5014461;28;20548;-61
2022/05/02 02:02:57;;;;;;;1.25;1.25;;;;;;;;;;5030729;28;20040;-62
2022/05/02 02:08:07;;;;;;;0.70;0.70;;;;;;;;;;5030539;28;20086;-60
2022/05/02 02:10:32;;;;;;;0.00;0.00;;;;;;;;;;5032393;28;20037;-61
2022/05/02 02:12:57;;;;;;;0.00;0.00;;;;;;;;;;5031376;28;20017;-60
2022/05/02 02:15:22;;;;;;;0.20;0.20;;;;;;;;;;5031434;28;20037;-61
2022/05/02 02:17:47;;;;;;;0.00;0.00;;;;;;;;;;5032520;28;20026;-62
2022/05/02 02:20:13;;;;;;;25.23;1.02;;;;;;;;;;5031692;28;20100;-60
2022/05/02 02:22:38;;;;;;;0.10;0.10;;;;;;;;;;5032056;28;20025;-60
2022/05/02 02:25:04;;;;;;;0.00;0.00;;;;;;;;;;5032460;28;20017;-61
2022/05/02 02:27:30;;;;;;;0.00;0.00;;;;;;;;;;5031696;28;20025;-61
2022/05/02 02:29:55;;;;;;;0.00;0.00;;;;;;;;;;5030623;28;20028;-61
2022/05/02 02:32:20;;;;;;;0.00;0.00;;;;;;;;;;5013170;28;20020;-60
2022/05/02 02:34:46;;;;;;;0.00;0.00;;;;;;;;;;5031294;28;20017;-62
2022/05/02 02:37:11;;;;;;;0.00;0.00;;;;;;;;;;5032267;28;20030;-62
2022/05/02 02:39:36;;;;;;;0.00;0.00;;;;;;;;;;5032439;28;20021;-61
2022/05/02 02:42:01;;;;;;;0.00;0.00;;;;;;;;;;5032090;28;20017;-61
2022/05/02 02:44:26;;;;;;;0.00;0.00;;;;;;;;;;5032390;28;20059;-61
2022/05/02 02:46:52;;;;;;;0.00;0.00;;;;;;;;;;5032293;28;20057;-62
2022/05/02 02:49:18;;;;;;;0.00;0.00;;;;;;;;;;5033007;28;20398;-61
2022/05/02 02:51:43;;;;;;;0.00;0.00;;;;;;;;;;5032446;28;20021;-61
2022/05/02 02:54:08;;;;;;;0.00;0.00;;;;;;;;;;5032804;28;20045;-60
2022/05/02 02:56:34;;;;;;;0.00;0.00;;;;;;;;;;5031940;28;20096;-61
2022/05/02 02:58:59;;;;;;;0.00;0.00;;;;;;;;;;5030804;28;20033;-62
2022/05/02 03:01:24;;;;;;;0.00;0.00;;;;;;;;;;5031849;28;20099;-62
2022/05/02 03:03:49;;;;;;;0.30;0.30;;;;;;;;;;5029796;28;20363;-62
2022/05/02 03:06:15;;;;;;;0.00;0.00;;;;;;;;;;5030841;28;20022;-62
2022/05/02 03:08:41;;;;;;;0.65;0.65;;;;;;;;;;5030827;28;20093;-61
2022/05/02 03:11:07;;;;;;;0.47;0.47;;;;;;;;;;5012975;28;20029;-62
2022/05/02 03:13:34;;;;;;;0.00;0.00;;;;;;;;;;5030004;28;20036;-62
2022/05/02 03:15:59;;;;;;;0.00;0.00;;;;;;;;;;5031327;28;20137;-61
2022/05/02 03:18:24;;;;;;;0.00;0.00;;;;;;;;;;5031125;28;20529;-62
2022/05/02 03:20:54;;;;;;;0.00;0.00;;;;;;;;;;5030895;28;20061;-62
2022/05/02 03:23:19;;;;;;;0.00;0.00;;;;;;;;;;5031211;28;20639;-60
2022/05/02 03:25:45;;;;;;;0.00;0.00;;;;;;;;;;5030639;28;20025;-61
2022/05/02 03:28:13;;;;;;;0.00;0.00;;;;;;;;;;5031242;28;20025;-60
2022/05/02 03:30:38;;;;;;;0.00;0.00;;;;;;;;;;5033658;28;20155;-61
2022/05/02 03:33:04;;;;;;;0.00;0.00;;;;;;;;;;5031727;28;20143;-61
2022/05/02 03:35:31;;;;;;;0.95;0.95;;;;;;;;;;5032369;28;20036;-61
2022/05/02 03:37:56;;;;;;;0.00;0.00;;;;;;;;;;5032585;28;20021;-62
2022/05/02 03:40:22;;;;;;;0.52;0.52;;;;;;;;;;5032574;28;20029;-62
2022/05/02 03:42:47;;;;;;;0.00;0.00;;;;;;;;;;5032181;28;20029;-59
2022/05/02 03:45:12;;;;;;;0.00;0.00;;;;;;;;;;5031702;28;20053;-61
2022/05/02 03:47:41;;;;;;;0.38;0.38;;;;;;;;;;5031883;28;20018;-61
2022/05/02 03:50:09;;;;;;;0.15;0.15;;;;;;;;;;5030584;28;20444;-61
2022/05/02 03:52:34;;;;;;;0.82;0.75;;;;;;;;;;5031753;28;20022;-61
2022/05/02 03:54:59;;;;;;;6.78;1.55;;;;;;;;;;5032401;28;20083;-62
2022/05/02 03:57:30;;;;;;;6.32;2.33;;;;;;;;;;5031492;28;20120;-61
2022/05/02 03:59:55;;;;;;;0.43;0.43;;;;;;;;;;5031052;28;20108;-61
2022/05/02 04:02:21;;;;;;;0.00;0.00;;;;;;;;;;5032110;28;20108;-61
2022/05/02 04:04:48;;;;;;;0.88;0.85;;;;;;;;;;5031540;28;20459;-61
2022/05/02 04:07:13;;;;;;;0.57;0.57;;;;;;;;;;5014026;28;20116;-61
2022/05/02 04:09:41;;;;;;;0.00;0.00;;;;;;;;;;5032002;28;20076;-61
2022/05/02 04:12:10;;;;;;;0.50;0.50;;;;;;;;;;5032669;28;20025;-61
2022/05/02 04:14:35;;;;;;;1.85;1.75;;;;;;;;;;5031740;28;20033;-61
2022/05/02 04:17:03;;;;;;;0.75;0.75;;;;;;;;;;5031989;28;20372;-62
2022/05/02 04:19:28;;;;;;;0.00;0.00;;;;;;;;;;5031375;28;20029;-62
2022/05/02 04:21:53;;;;;;;0.68;0.68;;;;;;;;;;5030856;28;20041;-61
2022/05/02 04:24:19;;;;;;;1.73;1.67;;;;;;;;;;5031168;28;20028;-60
2022/05/02 04:26:44;;;;;;;1.55;1.55;;;;;;;;;;5030627;28;20025;-61
2022/05/02 04:29:09;;;;;;;0.00;0.00;;;;;;;;;;5031684;28;20017;-59
2022/05/02 04:31:34;;;;;;;0.57;0.57;;;;;;;;;;5031939;28;20057;-60
2022/05/02 04:34:00;;;;;;;1.80;0.52;;;;;;;;;;5029701;28;20458;-60
2022/05/02 04:36:25;;;;;;;0.70;0.70;;;;;;;;;;5031737;28;20471;-60
2022/05/02 04:38:53;;;;;;;0.63;0.63;;;;;;;;;;5031843;28;20160;-60
2022/05/02 04:41:18;;;;;;;0.10;0.10;;;;;;;;;;5015161;28;20033;-61
2022/05/02 04:43:44;;;;;;;0.85;0.60;;;;;;;;;;5031560;28;20658;-62
2022/05/02 04:46:09;;;;;;;1.77;1.65;;;;;;;;;;5034359;28;20046;-60
2022/05/02 04:48:34;;;;;;;0.00;0.00;;;;;;;;;;5035748;28;20071;-61
2022/05/02 04:50:59;;;;;;;0.17;0.17;;;;;;;;;;5035335;28;20139;-61
2022/05/02 04:53:25;;;;;;;0.08;0.08;;;;;;;;;;5035608;28;20478;-60
2022/05/02 04:55:53;;;;;;;0.75;0.75;;;;;;;;;;5035460;28;20044;-61
2022/05/02 04:58:19;;;;;;;0.55;0.55;;;;;;;;;;5035702;28;20045;-62
2022/05/02 05:00:44;;;;;;;0.75;0.45;;;;;;;;;;5034310;28;20052;-61
2022/05/02 05:03:09;;;;;;;0.10;0.10;;;;;;;;;;5033893;28;20056;-62
2022/05/02 05:05:35;;;;;;;0.38;0.38;;;;;;;;;;5033036;28;20534;-61
2022/05/02 05:08:00;;;;;;;0.70;0.70;;;;;;;;;;5033704;28;20017;-59
2022/05/02 05:10:25;;;;;;;0.00;0.00;;;;;;;;;;5033796;28;20163;-59
2022/05/02 05:12:53;;;;;;;0.47;0.47;;;;;;;;;;5033250;28;20068;-61
2022/05/02 05:18:27;;;;;;;0.28;0.28;;;;;;;;;;5033568;28;20426;-61
2022/05/02 05:20:59;;;;;;;0.00;0.00;;;;;;;;;;5031686;28;20036;-61
2022/05/02 05:23:42;;;;;;;0.00;0.00;;;;;;;;;;5033106;28;20029;-61
2022/05/02 05:26:11;;;;;;;0.00;0.00;;;;;;;;;;5031738;28;20025;-62
2022/05/02 05:28:51;;;;;;;0.00;0.00;;;;;;;;;;5032877;28;20028;-61
2022/05/02 05:31:22;;;;;;;0.00;0.00;;;;;;;;;;5031420;28;20021;-61
2022/05/02 05:33:56;;;;;;;0.00;0.00;;;;;;;;;;5033951;28;20108;-62
2022/05/02 05:36:28;;;;;;;0.00;0.00;;;;;;;;;;5032849;28;20378;-64
2022/05/02 05:39:06;;;;;;;0.45;0.45;;;;;;;;;;5033956;28;20018;-61
2022/05/02 05:41:46;;;;;;;0.00;0.00;;;;;;;;;;5034065;28;20455;-62
2022/05/02 05:44:12;;;;;;;0.65;0.65;;;;;;;;;;5033593;28;20367;-60
2022/05/02 05:46:57;;;;;;;0.10;0.10;;;;;;;;;;5031414;28;20037;-68
2022/05/02 05:49:41;;;;;;;1.00;0.90;;;;;;;;;;5009868;28;20272;-63
2022/05/02 05:52:29;;;;;;;1.65;0.98;;;;;;;;;;5030662;28;20029;-64
2022/05/02 05:54:55;;;;;;;0.00;0.00;;;;;;;;;;5024224;28;20056;-63
2022/05/02 05:57:31;;;;;;;3.25;3.03;;;;;;;;;;5029067;28;20482;-64
2022/05/02 06:00:00;;;;;;;0.00;0.00;;;;;;;;;;5030038;28;20083;-64
2022/05/02 06:02:46;;;;;;;0.68;0.68;;;;;;;;;;5028712;28;20025;-63
2022/05/02 06:05:12;;;;;;;0.05;0.05;;;;;;;;;;5028563;28;20058;-63
2022/05/02 06:07:38;;;;;;;11.60;1.00;;;;;;;;;;5029501;28;20641;-63
2022/05/02 06:10:05;;;;;;;0.30;0.30;;;;;;;;;;5028306;28;20071;-62
2022/05/02 06:12:31;;;;;;;1.13;1.10;;;;;;;;;;5030352;28;20383;-62
2022/05/02 06:20:28;;;;;;;6.53;2.00;;;;;;;;;;5030153;28;20452;-62
2022/05/02 06:22:54;;;;;;;0.10;0.10;;;;;;;;;;5028628;28;20034;-63
2022/05/02 06:25:21;;;;;;;0.85;0.80;;;;;;;;;;5030029;28;20438;-63
2022/05/02 06:27:47;;;;;;;0.00;0.00;;;;;;;;;;5029481;28;20093;-62
2022/05/02 06:30:13;;;;;;;0.45;0.45;;;;;;;;;;5030364;28;20112;-63
2022/05/02 06:32:42;;;;;;;0.98;0.98;;;;;;;;;;5028438;28;20020;-64
2022/05/02 06:35:07;;;;;;;0.10;0.10;;;;;;;;;;5028745;28;20024;-64
2022/05/02 06:37:58;;;;;;;0.45;0.45;;;;;;;;;;5010915;28;20034;-62
2022/05/02 06:40:26;;;;;;;0.00;0.00;;;;;;;;;;5025038;28;20108;-64
2022/05/02 06:43:24;;;;;;;0.30;0.30;;;;;;;;;;5028922;28;20156;-62
2022/05/02 06:46:14;;;;;;;0.17;0.17;;;;;;;;;;4996463;28;20113;-63
2022/05/02 06:48:44;;;;;;;0.10;0.10;;;;;;;;;;5029182;28;20017;-62
2022/05/02 06:51:16;;;;;;;0.85;0.85;;;;;;;;;;5029317;28;20024;-62
2022/05/02 06:53:57;;;;;;;0.00;0.00;;;;;;;;;;5028832;28;20021;-62
2022/05/02 06:56:25;;;;;;;0.13;0.13;;;;;;;;;;5029427;28;20462;-62
2022/05/02 06:58:50;;;;;;;0.10;0.10;;;;;;;;;;5028896;28;20025;-63
2022/05/02 07:01:25;;;;;;;0.93;0.47;;;;;;;;;;5028288;28;20024;-63
2022/05/02 07:04:19;;;;;;;0.10;0.10;;;;;;;;;;5028949;28;20694;-63
2022/05/02 07:06:53;;;;;;;1.13;1.02;;;;;;;;;;4992186;28;20039;-63
2022/05/02 07:09:24;;;;;;;0.28;0.28;;;;;;;;;;5029139;28;20100;-63
2022/05/02 07:12:08;;;;;;;0.15;0.15;;;;;;;;;;5025619;28;20034;-63
2022/05/02 07:14:56;;;;;;;0.30;0.30;;;;;;;;;;5028695;28;20116;-62
2022/05/02 07:17:34;;;;;;;0.00;0.00;;;;;;;;;;5023258;28;20037;-63
2022/05/02 07:20:06;;;;;;;2.17;0.88;;;;;;;;;;5029129;28;20033;-63
2022/05/02 07:22:31;;;;;;;0.00;0.00;;;;;;;;;;5028476;28;20025;-63
2022/05/02 07:24:59;;;;;;;0.00;0.00;;;;;;;;;;5029930;28;20565;-63
2022/05/02 07:27:43;;;;;;;0.00;0.00;;;;;;;;;;5028963;28;20757;-64
2022/05/02 07:30:12;;;;;;;0.20;0.20;;;;;;;;;;5029292;28;20018;-63
2022/05/02 07:32:37;;;;;;;0.88;0.88;;;;;;;;;;5027502;28;20057;-61
2022/05/02 07:35:03;;;;;;;0.10;0.05;;;;;;;;;;5031975;28;20049;-60
2022/05/02 07:37:30;;;;;;;0.00;0.00;;;;;;;;;;5031498;28;20029;-60
2022/05/02 07:39:56;;;;;;;6.45;4.75;;;;;;;;;;5030406;28;20029;-60
2022/05/02 07:42:24;;;;;;;0.80;0.80;;;;;;;;;;5030084;28;20471;-59
2022/05/02 07:44:51;;;;;;;0.05;0.05;;;;;;;;;;5029638;28;20470;-59
2022/05/02 07:47:17;;;;;;;0.00;0.00;;;;;;;;;;5029660;28;20037;-59
2022/05/02 07:49:54;;;;;;;0.00;0.00;;;;;;;;;;5029972;28;20018;-59
2022/05/02 07:52:24;;;;;;;0.63;0.35;;;;;;;;;;5028543;28;20059;-59
2022/05/02 07:54:49;;;;;;;0.63;0.63;;;;;;;;;;5029643;28;20749;-59
2022/05/02 07:57:15;;;;;;;0.52;0.47;;;;;;;;;;5029538;28;20072;-58
2022/05/02 07:59:41;;;;;;;0.30;0.15;;;;;;;;;;5029331;28;20363;-59
2022/05/02 08:02:06;;;;;;;0.00;0.00;;;;;;;;;;5031010;28;20033;-59
2022/05/02 08:04:32;;;;;;;0.68;0.68;;;;;;;;;;5029305;28;20462;-58
2022/05/02 08:07:09;;;;;;;0.40;0.40;;;;;;;;;;5030170;28;20373;-58
2022/05/02 08:09:40;;;;;;;0.00;0.00;;;;;;;;;;5029899;28;20151;-59
2022/05/02 08:12:05;;;;;;;0.00;0.00;;;;;;;;;;5028331;28;21360;-59
2022/05/02 08:14:37;;;;;;;0.00;0.00;;;;;;;;;;5029145;28;20026;-61
2022/05/02 08:17:03;;;;;;;0.00;0.00;;;;;;;;;;5030338;28;20033;-58
2022/05/02 08:19:53;;;;;;;1.55;1.20;;;;;;;;;;5028441;28;20469;-58
2022/05/02 08:28:07;;;;;;;0.00;0.00;;;;;;;;;;5029545;28;20164;-59
2022/05/02 08:30:37;;;;;;;0.00;0.00;;;;;;;;;;5027810;28;20409;-59
2022/05/02 08:33:07;;;;;;;0.55;0.25;;;;;;;;;;5029176;28;20029;-60
2022/05/02 08:35:32;;;;;;;;;;;;;;;;;;5030774;28;20044;-59
2022/05/02 08:38:08;;;;;;;0.10;0.10;;;;;;;;;;5028088;28;20285;-58
2022/05/02 08:40:33;;;;;;;0.00;0.00;;;;;;;;;;5030637;28;20171;-59
2022/05/02 08:43:27;;;;;;;0.50;0.50;;;;;;;;;;5030832;28;20116;-59
2022/05/02 08:45:58;;;;;;;0.00;0.00;;;;;;;;;;5013263;28;20296;-60
2022/05/02 08:48:30;;;;;;;0.00;0.00;;;;;;;;;;5030570;28;20023;-60
2022/05/02 08:51:15;;;;;;;0.00;0.00;;;;;;;;;;5030448;28;20029;-59
2022/05/02 08:53:43;;;;;;;4.57;1.58;;;;;;;;;;5012493;28;20116;-59
2022/05/02 08:56:19;;;;;;;1.70;1.67;;;;;;;;;;5030254;28;20033;-60
2022/05/02 08:58:56;;;;;;;0.80;0.70;;;;;;;;;;5029698;28;20045;-60
2022/05/02 09:01:40;;;;;;;1.48;1.08;;;;;;;;;;5030444;28;20036;-60
2022/05/02 09:04:05;;;;;;;0.00;0.00;;;;;;;;;;5031151;28;20033;-60
2022/05/02 09:06:53;;;;;;;1.40;1.10;;;;;;;;;;5031306;28;20025;-60
2022/05/02 09:09:25;;;;;;;0.75;0.75;;;;;;;;;;5031108;28;20033;-60
2022/05/02 09:12:14;;;;;;;0.30;0.30;;;;;;;;;;5030026;28;20033;-59
2022/05/02 09:14:46;;;;;;;1.40;1.17;;;;;;;;;;5027755;28;20517;-58
2022/05/02 09:17:30;;;;;;;0.20;0.20;;;;;;;;;;5029457;28;20454;-58
2022/05/02 09:20:13;;;;;;;0.10;0.10;;;;;;;;;;5028818;28;20029;-58
2022/05/02 09:22:57;;;;;;;1.30;1.30;;;;;;;;;;5028764;28;20067;-58
2022/05/02 09:25:41;;;;;;;0.65;0.65;;;;;;;;;;5027840;28;20536;-59
2022/05/02 09:28:22;;;;;;;0.20;0.20;;;;;;;;;;5028089;28;20151;-59
2022/05/02 09:31:06;;;;;;;0.30;0.30;;;;;;;;;;5030208;28;20028;-58
2022/05/02 09:33:50;;;;;;;0.38;0.38;;;;;;;;;;5033490;28;20017;-58
2022/05/02 09:36:26;;;;;;;0.00;0.00;;;;;;;;;;5033168;28;20355;-60
2022/05/02 09:38:53;;;;;;;0.80;0.80;;;;;;;;;;5031789;28;20037;-59
2022/05/02 09:41:32;;;;;;;0.00;0.00;;;;;;;;;;5032876;28;20374;-59
2022/05/02 09:50:04;;;;;;;0.00;0.00;;;;;;;;;;5030068;28;20111;-60
2022/05/02 09:52:42;;;;;;;3.30;2.33;;;;;;;;;;5032332;28;20490;-59
2022/05/02 09:58:30;;;;;;;1.35;1.33;;;;;;;;;;5032131;28;20083;-58
2022/05/02 10:01:07;;;;;;;0.45;0.45;;;;;;;;;;5031885;28;20430;-59
2022/05/02 10:03:40;;;;;;;0.00;0.00;;;;;;;;;;5032341;28;20052;-58
2022/05/02 10:06:08;;;;;;;0.00;0.00;;;;;;;;;;5031984;28;20022;-59
2022/05/02 10:08:33;;;;;;;0.75;0.75;;;;;;;;;;5031185;28;20036;-58
2022/05/02 10:11:10;;;;;;;0.00;0.00;;;;;;;;;;5032384;28;20100;-58
2022/05/02 10:13:54;;;;;;;2.22;1.13;;;;;;;;;;5031778;28;20270;-57
2022/05/02 10:16:38;;;;;;;0.00;0.00;;;;;;;;;;5031602;28;20029;-57
2022/05/02 10:19:16;;;;;;;0.00;0.00;;;;;;;;;;5030674;28;20029;-58
2022/05/02 10:21:58;;;;;;;2.63;0.52;;;;;;;;;;5030636;28;20056;-57
2022/05/02 10:24:42;;;;;;;1.35;1.15;;;;;;;;;;5030835;28;20060;-58
2022/05/02 10:27:21;;;;;;;0.30;0.28;;;;;;;;;;5030109;28;20057;-58
2022/05/02 10:30:02;;;;;;;5.60;2.03;;;;;;;;;;5031793;28;20041;-59
2022/05/02 10:32:27;;;;;;;1.08;1.00;;;;;;;;;;5031333;28;20092;-59
2022/05/02 10:34:54;;;;;;;1.02;1.02;;;;;;;;;;5031684;28;20125;-58
2022/05/02 10:37:24;;;;;;;0.00;0.00;;;;;;;;;;5031899;28;20035;-58
2022/05/02 10:39:50;;;;;;;;;;;;;;;;;;5031799;28;20032;-57
2022/05/02 10:42:19;;;;;;;0.60;0.60;;;;;;;;;;5031055;28;19968;-58
2022/05/02 10:44:44;;;;;;;9.38;2.10;;;;;;;;;;5031244;28;20386;-58
2022/05/02 10:47:10;;;;;;;0.00;0.00;;;;;;;;;;5031143;28;20060;-59
2022/05/02 10:49:35;;;;;;;0.00;0.00;;;;;;;;;;5031185;28;20272;-58
2022/05/02 10:52:00;;;;;;;1.92;1.73;;;;;;;;;;5028059;28;20168;-58
2022/05/02 10:54:28;;;;;;;1.83;1.73;;;;;;;;;;5030941;28;20140;-58
2022/05/02 10:57:04;;;;;;;0.75;0.75;;;;;;;;;;5026744;28;20385;-58
2022/05/02 10:59:36;;;;;;;0.20;0.20;;;;;;;;;;5030046;28;20025;-57
2022/05/02 11:02:05;;;;;;;0.00;0.00;;;;;;;;;;5029912;28;20048;-57
2022/05/02 11:04:49;;;;;;;0.90;0.90;;;;;;;;;;5029496;28;20498;-59
2022/05/02 11:07:30;;;;;;;0.55;0.55;;;;;;;;;;5029616;28;20112;-58
2022/05/02 11:09:57;;;;;;;1.10;1.00;;;;;;;;;;5029692;28;20040;-58
2022/05/02 11:12:28;;;;;;;1.98;1.48;;;;;;;;;;5030022;28;20018;-58
2022/05/02 11:15:07;;;;;;;1.00;1.00;;;;;;;;;;5029799;28;20033;-59
2022/05/02 11:17:41;;;;;;;0.00;0.00;;;;;;;;;;5029713;28;20034;-59
2022/05/02 11:20:45;;;;;;;1.98;1.83;;;;;;;;;;5029291;28;20057;-58
2022/05/02 11:23:17;;;;;;;1.90;1.42;;;;;;;;;;5030333;28;20049;-59
2022/05/02 11:26:03;;;;;;;0.55;0.55;;;;;;;;;;5032386;28;20025;-59
2022/05/02 11:28:28;;;;;;;0.55;0.55;;;;;;;;;;5027244;28;20375;-58
2022/05/02 11:31:01;;;;;;;1.95;1.85;;;;;;;;;;5030150;28;20088;-59
2022/05/02 11:33:37;;;;;;;0.68;0.68;;;;;;;;;;5030491;28;20021;-59
2022/05/02 11:36:06;;;;;;;0.82;0.73;;;;;;;;;;5031162;28;20025;-59
2022/05/02 11:38:35;;;;;;;6.53;2.47;;;;;;;;;;5029680;28;20052;-59
2022/05/02 11:41:18;;;;;;;0.55;0.55;;;;;;;;;;5030282;28;20265;-58
2022/05/02 11:43:44;;;;;;;2.15;1.58;;;;;;;;;;5030350;28;20029;-59
2022/05/02 11:46:10;;;;;;;1.20;1.20;;;;;;;;;;5019802;28;20501;-59
2022/05/02 11:48:38;;;;;;;0.00;0.00;;;;;;;;;;5010805;28;20104;-58
2022/05/02 11:51:04;;;;;;;0.50;0.50;;;;;;;;;;5009580;28;20018;-58
2022/05/02 11:53:33;;;;;;;0.00;0.00;;;;;;;;;;5010093;28;20029;-59
2022/05/02 11:56:01;;;;;;;3.88;3.28;;;;;;;;;;5009511;28;20062;-59
2022/05/02 11:58:34;;;;;;;0.20;0.20;;;;;;;;;;4992777;28;20068;-59
2022/05/02 12:01:08;;;;;;;0.40;0.40;;;;;;;;;;5010174;28;20034;-58
2022/05/02 12:03:42;;;;;;;2.45;2.25;;;;;;;;;;5009845;28;20022;-59
2022/05/02 12:06:09;;;;;;;0.38;0.38;;;;;;;;;;5008350;28;20021;-59
2022/05/02 12:08:36;;;;;;;0.00;0.00;;;;;;;;;;5010099;28;20467;-60
2022/05/02 12:11:08;;;;;;;0.00;0.00;;;;;;;;;;5010498;28;20022;-57
2022/05/02 12:13:35;;;;;;;0.00;0.00;;;;;;;;;;5008067;28;20032;-57
2022/05/02 12:16:19;;;;;;;0.00;0.00;;;;;;;;;;5006864;28;20037;-59
2022/05/02 12:18:49;;;;;;;2.88;1.88;;;;;;;;;;5008240;28;20482;-59
2022/05/02 12:21:19;;;;;;;0.45;0.45;;;;;;;;;;5008923;28;20029;-58
2022/05/02 12:23:45;;;;;;;0.98;0.98;;;;;;;;;;5008753;28;20036;-58
2022/05/02 12:26:16;;;;;;;0.10;0.10;;;;;;;;;;5008556;28;20497;-58
2022/05/02 12:28:42;;;;;;;0.28;0.28;;;;;;;;;;5008920;28;20037;-59
2022/05/02 12:31:08;;;;;;;0.00;0.00;;;;;;;;;;5007131;28;20060;-59
2022/05/02 12:33:39;;;;;;;0.00;0.00;;;;;;;;;;5008232;28;20030;-59
2022/05/02 12:36:10;;;;;;;0.10;0.10;;;;;;;;;;5007379;28;20080;-60
2022/05/02 12:38:39;;;;;;;1.25;1.25;;;;;;;;;;5008419;28;20117;-59
2022/05/02 12:41:04;;;;;;;1.00;1.00;;;;;;;;;;5008405;28;20053;-61
2022/05/02 12:43:42;;;;;;;0.00;0.00;;;;;;;;;;5008695;28;20050;-60
2022/05/02 12:46:09;;;;;;;0.00;0.00;;;;;;;;;;5001597;28;20072;-61
2022/05/02 12:48:37;;;;;;;1.35;1.05;;;;;;;;;;5027495;28;20657;-61
2022/05/02 12:51:02;;;;;;;0.10;0.10;;;;;;;;;;5028260;28;20443;-61
2022/05/02 12:56:13;;;;;;;0.00;0.00;;;;;;;;;;5028741;28;20024;-59
2022/05/02 13:01:28;;;;;;;1.20;1.17;;;;;;;;;;5029879;28;20120;-59
2022/05/02 13:03:57;;;;;;;0.00;0.00;;;;;;;;;;5028928;28;20394;-59
2022/05/02 13:06:23;;;;;;;8.68;1.35;;;;;;;;;;5032460;28;20114;-59
2022/05/02 13:08:48;;;;;;;0.00;0.00;;;;;;;;;;5032695;28;20018;-59
2022/05/02 13:11:25;;;;;;;0.38;0.38;;;;;;;;;;5033526;28;20023;-59
2022/05/02 13:13:52;;;;;;;0.00;0.00;;;;;;;;;;5033584;28;20052;-59
2022/05/02 13:16:28;;;;;;;0.00;0.00;;;;;;;;;;5032048;28;20051;-59
2022/05/02 13:18:54;;;;;;;0.00;0.00;;;;;;;;;;5032296;28;20029;-59
2022/05/02 13:21:19;;;;;;;1.80;1.60;;;;;;;;;;5033222;28;20036;-59
2022/05/02 13:23:48;;;;;;;0.00;0.00;;;;;;;;;;5032791;28;20029;-59
2022/05/02 13:26:14;;;;;;;;;;;;;;;;;;5032962;28;20431;-59
2022/05/02 13:28:45;;;;;;;0.85;0.85;;;;;;;;;;5032635;28;20396;-59
2022/05/02 13:31:20;;;;;;;0.00;0.00;;;;;;;;;;5015405;28;20065;-59
2022/05/02 13:33:51;;;;;;;0.05;0.00;;;;;;;;;;5032381;28;20080;-59
2022/05/02 13:36:16;;;;;;;1.17;0.73;;;;;;;;;;5033137;28;20410;-59
2022/05/02 13:39:00;;;;;;;0.00;0.00;;;;;;;;;;5032493;28;20022;-58
2022/05/02 13:41:25;;;;;;;0.03;0.03;;;;;;;;;;5030901;28;20335;-59
2022/05/02 13:44:09;;;;;;;0.00;0.00;;;;;;;;;;5032284;28;20108;-59
2022/05/02 13:46:46;;;;;;;0.17;0.17;;;;;;;;;;5031675;28;20311;-59
2022/05/02 13:49:27;;;;;;;2.45;2.25;;;;;;;;;;5032110;28;20034;-58
2022/05/02 13:52:01;;;;;;;0.17;0.17;;;;;;;;;;5032086;28;20378;-58
2022/05/02 13:54:28;;;;;;;0.00;0.00;;;;;;;;;;5016143;28;20025;-58
2022/05/02 13:57:07;;;;;;;0.00;0.00;;;;;;;;;;5032493;28;20017;-59
2022/05/02 13:59:34;;;;;;;1.08;1.08;;;;;;;;;;5033232;28;20072;-58
2022/05/02 14:02:06;;;;;;;1.02;1.02;;;;;;;;;;5032624;28;20437;-59
2022/05/02 14:07:09;;;;;;;0.25;0.25;;;;;;;;;;5032529;28;20116;-57
2022/05/02 14:09:56;;;;;;;0.00;0.00;;;;;;;;;;5032041;28;20025;-58
2022/05/02 14:12:21;;;;;;;1.65;1.08;;;;;;;;;;5031515;28;20115;-57
2022/05/02 14:14:56;;;;;;;1.00;0.90;;;;;;;;;;5032212;28;20025;-59
2022/05/02 14:17:34;;;;;;;0.00;0.00;;;;;;;;;;5031628;28;20022;-59
2022/05/02 14:20:22;;;;;;;0.10;0.10;;;;;;;;;;5029725;28;20103;-58
2022/05/02 14:23:08;;;;;;;0.00;0.00;;;;;;;;;;5031725;28;20026;-59
2022/05/02 14:25:34;;;;;;;3.78;0.95;;;;;;;;;;5029796;28;20033;-59
2022/05/02 14:28:05;;;;;;;0.00;0.00;;;;;;;;;;5031242;28;20040;-59
2022/05/02 14:30:35;;;;;;;0.00;0.00;;;;;;;;;;5032747;28;20048;-58
2022/05/02 14:33:01;;;;;;;1.08;0.70;;;;;;;;;;5030951;28;20021;-58
2022/05/02 14:35:36;;;;;;;0.00;0.00;;;;;;;;;;5032122;28;20124;-58
2022/05/02 14:38:03;;;;;;;21.52;1.38;;;;;;;;;;5032137;28;20103;-58
2022/05/02 14:40:29;;;;;;;0.00;0.00;;;;;;;;;;5032000;28;20140;-57
2022/05/02 14:42:55;;;;;;;0.28;0.28;;;;;;;;;;5032556;28;20152;-58
2022/05/02 14:45:20;;;;;;;0.00;0.00;;;;;;;;;;5011175;28;20493;-58
2022/05/02 14:47:46;;;;;;;0.17;0.17;;;;;;;;;;5022369;28;20371;-58
2022/05/02 14:50:12;;;;;;;0.00;0.00;;;;;;;;;;5022849;28;20053;-58
2022/05/02 14:52:37;;;;;;;0.00;0.00;;;;;;;;;;5024354;28;20046;-57
2022/05/02 14:55:04;;;;;;;0.00;0.00;;;;;;;;;;5022968;28;20104;-57
2022/05/02 14:57:30;;;;;;;0.95;0.95;;;;;;;;;;5022247;28;20071;-58
2022/05/02 14:59:58;;;;;;;0.00;0.00;;;;;;;;;;5021821;28;20029;-58
2022/05/02 15:02:25;;;;;;;0.00;0.00;;;;;;;;;;5024133;28;20364;-58
2022/05/02 15:04:58;;;;;;;0.00;0.00;;;;;;;;;;5021261;28;20084;-59
2022/05/02 15:07:30;;;;;;;0.00;0.00;;;;;;;;;;5018496;28;20029;-59
2022/05/02 15:10:18;;;;;;;0.00;0.00;;;;;;;;;;5012316;28;20352;-59
2022/05/02 15:13:02;;;;;;;0.00;0.00;;;;;;;;;;4986454;28;20108;-59
2022/05/02 15:15:51;;;;;;;6.72;6.32;;;;;;;;;;5015590;28;20028;-59
2022/05/02 15:18:37;;;;;;;0.00;0.00;;;;;;;;;;5013534;28;20021;-58
2022/05/02 15:21:05;;;;;;;0.00;0.00;;;;;;;;;;5018995;28;20065;-58
2022/05/02 15:23:31;;;;;;;0.00;0.00;;;;;;;;;;5020196;28;20026;-58
2022/05/02 15:25:56;;;;;;;0.10;0.10;;;;;;;;;;5020911;28;20025;-59
2022/05/02 15:36:47;;;;;;;0.15;0.15;;;;;;;;;;5015539;28;20399;-59
2022/05/02 15:39:12;;;;;;;0.30;0.30;;;;;;;;;;5013598;28;20022;-59
2022/05/02 15:41:41;;;;;;;0.00;0.00;;;;;;;;;;5014239;28;20017;-59
2022/05/02 15:44:17;;;;;;;0.00;0.00;;;;;;;;;;5019209;28;20033;-60
2022/05/02 15:46:45;;;;;;;1.63;1.52;;;;;;;;;;5010492;28;20077;-60
2022/05/02 15:49:13;;;;;;;0.00;0.00;;;;;;;;;;5010333;28;20021;-59